Flight Track Log - Related Links

Times and Time Zones

All times are in EDT time to prevent confusion due to time zone crossing. See the SRY660 flight status page for this flight to view local times or setup timezone preferences in your user account.

Time Position Orientation Groundspeed Altitude Reporting Facility
EDT Latitude Longitude Course Direction KTS MPH feet Rate Location/Type
Fri 10:27:02 AM 43.1167 -78.9667 61° Northeast 136 157 1,200  Level Buffalo TRACON
Fri 10:29:07 AM 43.1481 -78.8903 61° Northeast 107 123 4,900 1,816 Climbing Cleveland Center
Fri 10:30:07 AM 43.1469 -78.8106 91° East 195 224 6,800 1,700 Climbing Cleveland Center
Fri 10:31:07 AM 43.1022 -78.7578 139° Southeast 188 216 8,300 1,800 Climbing Cleveland Center
Fri 10:32:07 AM 43.0478 -78.7281 158° South 195 224 10,400 1,750 Climbing Cleveland Center
Fri 10:33:07 AM 42.9928 -78.6900 153° Southeast 214 246 11,800 1,267 Climbing Cleveland Center
Fri 10:35:07 AM 42.8811 -78.6056 151° Southeast 220 253 14,200 1,200 Climbing Cleveland Center
Fri 10:36:07 AM 42.8239 -78.5619 151° Southeast 226 260 15,400 1,200 Climbing Cleveland Center
Fri 10:37:07 AM 42.7669 -78.5158 149° Southeast 226 260 16,600 1,200 Climbing Cleveland Center
Fri 10:38:07 AM 42.7078 -78.4697 150° Southeast 231 266 17,800 1,000 Climbing Cleveland Center
Fri 10:39:07 AM 42.6483 -78.4236 150° Southeast 236 272 18,600 433 Climbing Cleveland Center
Fri 10:41:07 AM 42.5114 -78.3356 155° Southeast 267 307 19,100 167 Climbing Cleveland Center
Fri 10:42:07 AM 42.4356 -78.2931 158° South 283 326 19,100  Level Cleveland Center
Fri 10:43:07 AM 42.3594 -78.2481 156° South 294 338 19,100  Level Cleveland Center
Fri 10:44:07 AM 42.2833 -78.2003 155° Southeast 299 344 19,100  Level Cleveland Center
Fri 10:45:07 AM 42.2053 -78.1556 157° South 299 344 19,100  Level Cleveland Center
Fri 10:46:07 AM 42.1272 -78.1111 157° South 299 344 19,100  Level Cleveland Center
Fri 10:47:07 AM 42.0514 -78.0664 156° South 299 344 19,100  Level Cleveland Center
Fri 10:48:07 AM 41.9711 -78.0219 158° South 299 344 19,100  Level Cleveland Center
Fri 10:49:07 AM 41.8928 -77.9750 156° South 299 344 19,100  Level Cleveland Center
Fri 10:50:07 AM 41.8147 -77.9281 156° South 299 344 19,100 -100 Level Cleveland Center
Fri 10:51:07 AM 41.7386 -77.8839 157° South 299 344 18,900 -706 Descending Cleveland Center
Fri 10:52:23 AM 41.6347 -77.8236 157° South 302 348 17,500 -838 Descending New York Center
Fri 10:53:23 AM 41.5542 -77.7764 156° South 316 364 17,000 -250 Descending New York Center
Fri 10:54:23 AM 41.4736 -77.7292 156° South 321 369 17,000  Level New York Center
Fri 10:55:23 AM 41.3931 -77.6850 158° South 321 369 17,000 -100 Level New York Center
Fri 10:56:23 AM 41.3144 -77.6381 156° South 321 369 16,800 -700 Descending New York Center
Fri 10:57:23 AM 41.2317 -77.5939 158° South 321 369 15,600 -1,400 Descending New York Center
Fri 10:58:23 AM 41.1508 -77.5472 157° South 326 375 14,000 -3,300 Descending New York Center
Fri 10:59:23 AM 41.0700 -77.5033 158° South 320 368 9,000 -1,600 Descending New York Center
Fri 11:00:23 AM 40.9953 -77.4603 156° South 314 361 10,800 100 Climbing New York Center
Fri 11:01:23 AM 40.9247 -77.4175 155° Southeast 303 349 9,200 -1,550 Descending New York Center
Fri 11:02:23 AM 40.8542 -77.3778 157° South 291 335 7,700 -1,100 Descending New York Center
Fri 11:03:23 AM 40.7875 -77.3383 156° South 278 320 7,000 -347 Descending New York Center
Fri 11:04:24 AM 40.7350 -77.3086 157° South 253 291 7,000  Level New York Center
Fri 11:05:24 AM 40.6722 -77.2753 158° South 247 284 7,000  Level New York Center
Fri 11:06:23 AM 40.6031 -77.3181 205° Southwest 242 278 7,000  Level New York Center
Fri 11:07:24 AM 40.5897 -77.4069 259° West 233 268 7,000  Level New York Center
Fri 11:08:24 AM 40.5564 -77.4803 239° Southwest 241 277 7,000  Level New York Center
Fri 11:09:23 AM 40.5003 -77.4419 153° Southeast 170 196 7,000  Level New York Center
Fri 11:10:23 AM 40.4614 -77.3564 121° Southeast 209 241 7,000  Level New York Center
Fri 11:11:24 AM 40.4242 -77.2736 121° Southeast 250 288 7,000  Level New York Center
Fri 11:12:23 AM 40.3869 -77.1911 121° Southeast 272 313 7,000  Level New York Center
Fri 11:13:23 AM 40.3586 -77.1014 112° Southeast 272 313 7,000 -150 Level New York Center
Fri 11:14:23 AM 40.3342 -77.0092 109° East 260 299 6,700 -650 Descending New York Center
Fri 11:15:23 AM 40.3114 -76.9283 110° East 255 293 5,700 -900 Descending New York Center
Fri 11:16:23 AM 40.2906 -76.8475 109° East 247 284 4,900 -850 Descending New York Center
Fri 11:17:23 AM 40.2647 -76.7797 117° Southeast 206 237 4,000 -545 Descending New York Center
Fri 11:18:24 AM 40.2428 -76.7236 117° Southeast 197 227 3,800 1,500 Descending New York Center
Fri 11:19:23 AM 40.2189 -76.6589 116° Southeast 197 227 7,000 1,613 Climbing New York Center
Fri 11:20:23 AM 40.1969 -76.5972 115° Southeast 197 227 7,000  Level New York Center
Fri 11:21:23 AM 40.1728 -76.5328 116° Southeast 197 227 7,000  Level New York Center
Fri 11:22:23 AM 40.1636 -76.5075 115° Southeast 197 227 7,000  Level New York Center

Login

Don't have an account? Register now (free) for customized features, flight alerts, and more!